createdAt,value
2022-09-03T00:00:15.060Z,57.66
2022-09-03T00:03:16.477Z,59.12
2022-09-03T00:06:17.700Z,60.23
2022-09-03T00:09:36.101Z,66.15
2022-09-03T00:12:34.701Z,67.61
2022-09-03T00:15:24.716Z,63.40
2022-09-03T00:18:22.224Z,61.15
2022-09-03T00:21:22.542Z,57.21
2022-09-03T00:24:15.623Z,56.65
2022-09-03T00:27:11.673Z,57.99
2022-09-03T00:30:21.467Z,59.88
2022-09-03T00:33:27.375Z,60.44
2022-09-03T00:36:45.218Z,64.80
2022-09-03T00:39:33.766Z,64.42
2022-09-03T00:43:16.323Z,61.62
2022-09-03T00:46:51.283Z,56.86
2022-09-03T00:49:48.545Z,57.94
2022-09-03T00:53:00.944Z,59.81
2022-09-03T00:56:25.138Z,61.50
2022-09-03T00:59:35.908Z,66.04
2022-09-03T01:02:58.565Z,64.65
2022-09-03T01:06:13.449Z,59.78
2022-09-03T01:09:09.670Z,59.78
2022-09-03T01:12:03.480Z,63.36
2022-09-03T01:15:06.856Z,65.10
2022-09-03T01:18:21.888Z,63.04
2022-09-03T01:21:28.229Z,60.83
2022-09-03T01:24:35.965Z,58.72
2022-09-03T01:27:50.793Z,59.97
2022-09-03T01:30:49.335Z,64.14
2022-09-03T01:34:25.843Z,62.40
2022-09-03T01:37:39.110Z,60.11
2022-09-03T01:41:36.790Z,58.71
2022-09-03T01:45:14.293Z,61.92
2022-09-03T01:48:12.117Z,65.75
2022-09-03T01:51:19.809Z,62.06
2022-09-03T01:54:38.654Z,59.73
2022-09-03T01:58:06.763Z,59.77
2022-09-03T02:01:07.710Z,64.44
2022-09-03T02:04:00.124Z,64.11
2022-09-03T02:06:49.058Z,62.08
2022-09-03T02:09:36.730Z,61.33
2022-09-03T02:12:25.466Z,60.63
2022-09-03T02:15:19.526Z,58.82
2022-09-03T02:18:17.293Z,58.83
2022-09-03T02:21:05.616Z,60.54
2022-09-03T02:23:54.109Z,65.63
2022-09-03T02:26:41.917Z,66.09
2022-09-03T02:29:31.038Z,64.53
2022-09-03T02:32:19.193Z,62.38
2022-09-03T02:35:08.140Z,60.95
2022-09-03T02:37:56.360Z,60.35
2022-09-03T02:40:45.860Z,60.07
2022-09-03T02:43:45.783Z,59.78
2022-09-03T02:47:03.055Z,58.18
2022-09-03T02:49:52.745Z,60.33
2022-09-03T02:52:40.967Z,65.39
2022-09-03T02:55:30.665Z,65.03
2022-09-03T02:58:18.665Z,62.84
2022-09-03T03:01:06.745Z,61.53
2022-09-03T03:03:54.640Z,60.78
2022-09-03T03:06:42.719Z,59.80
2022-09-03T03:09:35.783Z,57.86
2022-09-03T03:12:23.613Z,58.37
2022-09-03T03:15:11.649Z,60.60
2022-09-03T03:17:59.659Z,65.84
2022-09-03T03:20:50.355Z,65.85
2022-09-03T03:23:39.752Z,63.14
2022-09-03T03:26:27.269Z,61.49
2022-09-03T03:29:20.871Z,59.73
2022-09-03T03:32:09.101Z,57.75
2022-09-03T03:34:57.097Z,59.96
2022-09-03T03:37:45.448Z,63.61
2022-09-03T03:40:35.016Z,62.91
2022-09-03T03:43:23.055Z,60.59
2022-09-03T03:46:12.178Z,58.02
2022-09-03T03:49:01.359Z,58.71
2022-09-03T03:51:49.361Z,62.08
2022-09-03T03:54:37.683Z,65.83
2022-09-03T03:57:26.046Z,64.31
2022-09-03T04:00:15.581Z,61.31
2022-09-03T04:03:04.775Z,57.98
2022-09-03T04:05:59.346Z,59.34
2022-09-03T04:08:49.764Z,60.10
2022-09-03T04:11:37.454Z,65.20
2022-09-03T04:14:27.356Z,65.07
2022-09-03T04:17:15.799Z,63.15
2022-09-03T04:20:04.813Z,61.41
2022-09-03T04:22:52.694Z,59.96
2022-09-03T04:25:42.097Z,56.95
2022-09-03T04:28:30.065Z,57.67
2022-09-03T04:31:21.347Z,59.21
2022-09-03T04:34:09.640Z,60.43
2022-09-03T04:37:00.718Z,65.43
2022-09-03T04:39:48.805Z,66.18
2022-09-03T04:42:36.741Z,63.22
2022-09-03T04:45:24.850Z,61.23
2022-09-03T04:48:13.868Z,57.75
2022-09-03T04:51:07.535Z,57.55
2022-09-03T04:54:00.359Z,59.36
2022-09-03T04:56:48.888Z,60.84
2022-09-03T04:59:37.243Z,65.10
2022-09-03T05:02:25.617Z,65.35
2022-09-03T05:05:13.971Z,62.31
2022-09-03T05:08:02.267Z,59.60
2022-09-03T05:10:50.115Z,56.83
2022-09-03T05:13:43.380Z,57.38
2022-09-03T05:16:31.636Z,59.40
2022-09-03T05:19:19.864Z,59.65
2022-09-03T05:22:08.315Z,64.75
2022-09-03T05:24:58.261Z,64.90
2022-09-03T05:27:47.206Z,62.14
2022-09-03T05:30:36.667Z,59.48
2022-09-03T05:33:25.138Z,55.82
2022-09-03T05:36:17.182Z,56.08
2022-09-03T05:39:09.563Z,58.20
2022-09-03T05:41:57.491Z,59.30
2022-09-03T05:44:45.705Z,61.57
2022-09-03T05:47:33.620Z,64.59
2022-09-03T05:50:21.587Z,63.31
2022-09-03T05:53:09.753Z,60.75
2022-09-03T05:56:00.353Z,57.09
2022-09-03T05:58:52.722Z,56.08
2022-09-03T06:01:50.702Z,59.57
2022-09-03T06:04:40.295Z,60.38
2022-09-03T06:07:28.388Z,60.60
2022-09-03T06:10:20.225Z,62.66
2022-09-03T06:13:10.876Z,56.25
2022-09-03T06:16:08.703Z,55.94
2022-09-03T06:18:57.003Z,55.39
2022-09-03T06:21:48.521Z,55.63
2022-09-03T06:24:37.000Z,57.02
2022-09-03T06:27:26.213Z,59.76
2022-09-03T06:30:17.214Z,56.94
2022-09-03T06:33:04.877Z,57.42
2022-09-03T06:35:58.190Z,58.42
2022-09-03T06:38:47.630Z,59.59
2022-09-03T06:41:36.155Z,60.58
2022-09-03T06:44:24.327Z,59.71
2022-09-03T06:47:12.244Z,60.30
2022-09-03T06:50:02.329Z,60.44
2022-09-03T06:52:57.059Z,60.93
2022-09-03T06:55:53.867Z,63.67
2022-09-03T06:58:45.592Z,63.29
2022-09-03T07:01:34.987Z,57.79
2022-09-03T07:04:25.175Z,56.46
2022-09-03T07:07:14.203Z,56.38
2022-09-03T07:10:02.567Z,57.51
2022-09-03T07:12:50.524Z,58.04
2022-09-03T07:15:38.483Z,58.97
2022-09-03T07:18:26.254Z,59.33
2022-09-03T07:21:27.221Z,59.71
2022-09-03T07:24:15.476Z,60.30
2022-09-03T07:27:09.836Z,60.44
2022-09-03T07:30:00.686Z,60.98
2022-09-03T07:32:51.154Z,61.79
2022-09-03T07:35:39.150Z,63.70
2022-09-03T07:38:27.034Z,63.55
2022-09-03T07:41:26.807Z,57.41
2022-09-03T07:44:19.981Z,56.39
2022-09-03T07:47:10.252Z,57.83
2022-09-03T07:49:58.209Z,59.16
2022-09-03T07:52:46.128Z,60.15
2022-09-03T07:55:34.134Z,60.23
2022-09-03T07:58:24.267Z,60.38
2022-09-03T08:01:18.197Z,61.62
2022-09-03T08:04:09.710Z,61.05
2022-09-03T08:06:59.509Z,61.16
2022-09-03T08:09:51.151Z,59.41
2022-09-03T08:12:39.420Z,58.94
2022-09-03T08:15:27.875Z,57.97
2022-09-03T08:18:15.966Z,57.37
2022-09-03T08:21:16.314Z,56.08
2022-09-03T08:24:04.864Z,55.21
2022-09-03T08:26:52.814Z,54.55
2022-09-03T08:29:40.696Z,54.06
2022-09-03T08:32:31.044Z,54.47
2022-09-03T08:35:22.133Z,54.13
2022-09-03T08:38:11.013Z,52.71
2022-09-03T08:41:17.535Z,52.26
2022-09-03T08:44:33.444Z,53.03
2022-09-03T08:47:46.644Z,53.22
2022-09-03T08:50:56.208Z,52.55
2022-09-03T08:53:56.252Z,50.80
2022-09-03T08:56:44.836Z,49.67
2022-09-03T08:59:33.951Z,47.93
2022-09-03T09:03:01.512Z,46.80
2022-09-03T09:06:17.193Z,44.57
2022-09-03T09:09:39.415Z,44.30
2022-09-03T09:12:44.201Z,42.77
2022-09-03T09:16:40.557Z,42.07
2022-09-03T09:20:16.794Z,40.22
2022-09-03T09:23:09.228Z,39.60
2022-09-03T09:26:01.847Z,38.42
2022-09-03T09:29:09.452Z,38.20
2022-09-03T09:31:58.234Z,36.71
2022-09-03T09:34:51.837Z,34.48
2022-09-03T09:37:51.209Z,33.96
2022-09-03T09:40:45.642Z,33.35
2022-09-03T09:43:34.068Z,31.61
2022-09-03T09:46:31.253Z,29.85
2022-09-03T09:49:36.045Z,29.38
2022-09-03T09:52:30.436Z,28.09
2022-09-03T09:55:20.607Z,27.43
2022-09-03T09:58:14.701Z,28.62
2022-09-03T10:01:13.565Z,29.96
2022-09-03T10:04:24.558Z,30.77
2022-09-03T10:07:33.283Z,29.58
2022-09-03T10:10:22.277Z,29.42
2022-09-03T10:13:31.163Z,29.63
2022-09-03T10:16:36.296Z,28.42
2022-09-03T10:19:40.854Z,27.88
2022-09-03T10:22:35.234Z,27.52
2022-09-03T10:25:29.893Z,26.25
2022-09-03T10:28:18.599Z,26.15
2022-09-03T10:31:37.032Z,25.86
2022-09-03T10:34:59.047Z,25.98
2022-09-03T10:38:00.873Z,27.76
2022-09-03T10:41:09.803Z,27.75
2022-09-03T10:44:19.762Z,27.83
2022-09-03T10:47:19.826Z,28.53
2022-09-03T10:50:59.929Z,28.85
2022-09-03T10:54:36.094Z,28.53
2022-09-03T10:58:11.476Z,28.18
2022-09-03T11:01:22.411Z,28.51
2022-09-03T11:05:01.216Z,28.41
2022-09-03T11:08:03.659Z,28.49
2022-09-03T11:11:00.895Z,29.17
2022-09-03T11:14:00.322Z,30.68
2022-09-03T11:17:03.176Z,30.78
2022-09-03T11:19:58.979Z,29.91
2022-09-03T11:22:49.778Z,28.93
2022-09-03T11:25:54.830Z,28.71
2022-09-03T11:28:57.249Z,29.14
2022-09-03T11:31:58.062Z,28.85
2022-09-03T11:34:52.736Z,28.77
2022-09-03T11:38:00.012Z,27.90
2022-09-03T11:41:27.373Z,27.73
2022-09-03T11:45:16.783Z,27.28
2022-09-03T11:48:48.309Z,27.07
2022-09-03T11:51:42.145Z,27.02
2022-09-03T11:54:33.656Z,26.80
2022-09-03T11:57:30.795Z,27.35
2022-09-03T12:00:21.765Z,27.46
2022-09-03T12:03:16.471Z,27.64
2022-09-03T12:06:49.663Z,28.53
2022-09-03T12:10:19.431Z,29.06
2022-09-03T12:13:40.622Z,29.80
2022-09-03T12:16:56.699Z,30.48
2022-09-03T12:19:56.377Z,30.92
2022-09-03T12:22:44.191Z,31.62
2022-09-03T12:25:32.535Z,32.44
2022-09-03T12:28:26.393Z,33.33
2022-09-03T12:31:24.755Z,34.01
2022-09-03T12:34:20.196Z,34.49
2022-09-03T12:40:32.922Z,35.65
2022-09-03T12:46:34.440Z,36.79
2022-09-03T12:49:30.427Z,37.74
2022-09-03T12:52:33.171Z,37.95
2022-09-03T12:55:54.112Z,38.02
2022-09-03T12:59:02.356Z,38.60
2022-09-03T13:01:58.762Z,38.97
2022-09-03T13:04:47.512Z,38.10
2022-09-03T13:07:39.057Z,38.32
2022-09-03T13:10:39.062Z,38.12
2022-09-03T13:13:36.781Z,38.21
2022-09-03T13:16:46.792Z,38.29
2022-09-03T13:19:51.034Z,38.44
2022-09-03T19:45:26.634Z,59.92
2022-09-03T19:49:18.224Z,57.35
2022-09-03T19:52:40.148Z,59.16
2022-09-03T19:55:55.028Z,59.81
2022-09-03T19:59:29.717Z,61.24
2022-09-03T20:02:36.326Z,68.91
2022-09-03T20:05:43.863Z,66.57
2022-09-03T20:08:52.835Z,62.30
2022-09-03T20:11:41.915Z,57.77
2022-09-03T20:14:33.219Z,57.11
2022-09-03T20:18:19.684Z,58.36
2022-09-03T20:21:23.740Z,59.55
2022-09-03T20:24:34.234Z,60.84
2022-09-03T20:27:58.751Z,65.65
2022-09-03T20:31:25.089Z,67.80
2022-09-03T20:34:35.330Z,64.98
2022-09-03T20:37:30.157Z,61.06
2022-09-03T20:40:40.158Z,56.81
2022-09-03T20:43:59.054Z,56.42
2022-09-03T20:47:05.800Z,57.85
2022-09-03T20:50:22.246Z,59.89
2022-09-03T20:53:23.726Z,60.24
2022-09-03T20:56:35.739Z,65.20
2022-09-03T20:59:36.104Z,67.36
2022-09-03T21:03:20.121Z,63.82
2022-09-03T21:06:39.120Z,60.98
2022-09-03T21:10:05.322Z,56.86
2022-09-03T21:13:47.731Z,57.13
2022-09-03T21:17:00.544Z,58.74
2022-09-03T21:20:16.547Z,60.18
2022-09-03T21:23:21.929Z,61.32
2022-09-03T21:26:27.648Z,66.78
2022-09-03T21:29:32.999Z,68.20
2022-09-03T21:32:29.434Z,64.81
2022-09-03T21:35:43.090Z,61.92
2022-09-03T21:38:38.591Z,60.14
2022-09-03T21:41:49.700Z,56.72
2022-09-03T21:45:07.814Z,56.67
2022-09-03T21:48:18.550Z,58.30
2022-09-03T21:51:22.103Z,59.87
2022-09-03T21:54:19.164Z,61.28
2022-09-03T21:57:40.764Z,66.13
2022-09-03T22:00:32.792Z,67.75
2022-09-03T22:03:21.824Z,64.17
2022-09-03T22:06:25.769Z,61.88
2022-09-03T22:09:33.722Z,60.14
2022-09-03T22:12:40.187Z,56.55
2022-09-03T22:15:29.965Z,56.85
2022-09-03T22:18:28.812Z,58.54
2022-09-03T22:21:37.218Z,59.05
2022-09-03T22:24:48.218Z,60.13
2022-09-03T22:27:50.044Z,64.60
2022-09-03T22:31:13.032Z,67.09
2022-09-03T22:34:46.399Z,64.54
2022-09-03T22:38:01.909Z,60.78
2022-09-03T22:41:16.267Z,56.30
2022-09-03T22:44:22.879Z,56.35
2022-09-03T22:48:02.844Z,57.00
2022-09-03T22:51:00.637Z,57.28
2022-09-03T22:54:05.283Z,58.92
2022-09-03T22:56:56.319Z,60.22
2022-09-03T23:00:09.722Z,66.69
2022-09-03T23:03:07.971Z,65.05
2022-09-03T23:06:13.436Z,59.96
2022-09-03T23:09:36.994Z,55.65
2022-09-03T23:12:46.435Z,54.91
2022-09-03T23:15:38.700Z,56.31
2022-09-03T23:18:32.553Z,57.91
2022-09-03T23:21:41.181Z,58.80
2022-09-03T23:24:50.273Z,59.60
2022-09-03T23:27:53.682Z,60.10
2022-09-03T23:30:41.905Z,64.33
2022-09-03T23:33:29.568Z,66.94
2022-09-03T23:36:50.997Z,64.03
2022-09-03T23:40:16.380Z,60.50
2022-09-03T23:43:14.380Z,55.68
2022-09-03T23:46:19.065Z,55.38
2022-09-03T23:49:27.400Z,56.78
2022-09-03T23:52:20.980Z,58.51
2022-09-03T23:55:41.608Z,58.88
2022-09-03T23:58:44.351Z,59.33
